Time;durP1;ratioP1;P1;durP2;ratioP2;P2;SDS_P1;SDS_P2;PMS_P1;PMS_P2;Temp;Humidity;BMP_temperature;BMP_pressure;BME280_temperature;BME280_humidity;BME280_pressure;Samples;Min_cycle;Max_cycle;Signal;HPM_P1;HPM_P2
2023/10/27 00:01:12;;;;;;;5.85;2.30;;;11.60;99.90;;;11.59;100.00;98710.66;5244747;28;20043;-46
2023/10/27 00:03:44;;;;;;;4.50;2.15;;;11.60;99.90;;;11.58;100.00;98710.69;5242086;28;20053;-47
2023/10/27 00:06:17;;;;;;;5.80;2.58;;;11.60;99.90;;;11.56;100.00;98705.47;5258821;28;20043;-46
2023/10/27 00:08:51;;;;;;;4.15;2.10;;;11.60;99.90;;;11.56;100.00;98702.00;5249782;28;20514;-46
2023/10/27 00:11:23;;;;;;;5.85;2.38;;;11.60;99.90;;;11.55;100.00;98703.75;5243336;28;20376;-47
2023/10/27 00:13:56;;;;;;;3.75;2.05;;;11.60;99.90;;;11.55;100.00;98705.47;5244344;28;20048;-47
2023/10/27 00:16:29;;;;;;;4.45;2.20;;;11.60;99.90;;;11.54;100.00;98704.63;5244580;28;20040;-47
2023/10/27 00:19:01;;;;;;;4.35;2.00;;;11.50;99.90;;;11.54;100.00;98704.63;5245972;28;20525;-47
2023/10/27 00:21:34;;;;;;;4.10;1.85;;;11.50;99.90;;;11.55;100.00;98698.50;5241412;28;20048;-47
2023/10/27 00:24:09;;;;;;;4.28;2.20;;;11.50;99.90;;;11.54;100.00;98696.78;5239253;28;20048;-46
2023/10/27 00:26:41;;;;;;;;;;;11.50;99.90;;;11.56;100.00;98704.59;5243922;28;20051;-46
2023/10/27 00:29:13;;;;;;;3.28;1.95;;;11.60;99.90;;;11.54;100.00;98702.00;5245270;28;19930;-47
2023/10/27 00:31:46;;;;;;;7.63;2.35;;;11.50;99.90;;;11.56;100.00;98699.38;5244144;28;20068;-47
2023/10/27 00:34:18;;;;;;;5.78;2.00;;;11.60;99.90;;;11.55;100.00;98698.50;5242137;28;20050;-47
2023/10/27 00:36:51;;;;;;;4.35;2.05;;;11.50;99.90;;;11.56;100.00;98692.41;5245189;28;20072;-47
2023/10/27 00:39:25;;;;;;;3.97;2.03;;;11.50;99.90;;;11.57;100.00;98695.91;5242871;28;20056;-47
2023/10/27 00:41:57;;;;;;;3.85;1.88;;;11.60;99.90;;;11.57;100.00;98696.75;5239827;28;20059;-46
2023/10/27 00:44:30;;;;;;;5.35;1.90;;;11.60;99.90;;;11.57;100.00;98696.75;5244099;28;20162;-45
2023/10/27 00:47:03;;;;;;;7.00;2.00;;;11.60;99.90;;;11.59;100.00;98708.06;5244585;28;20603;-46
2023/10/27 00:49:36;;;;;;;5.93;2.35;;;11.60;99.90;;;11.61;100.00;98700.25;5242807;28;20443;-47
2023/10/27 00:52:08;;;;;;;4.50;2.22;;;11.60;99.90;;;11.61;100.00;98701.13;5243138;28;20356;-47
2023/10/27 00:54:44;;;;;;;5.72;2.25;;;11.60;99.90;;;11.61;100.00;98697.63;5244794;28;20506;-47
2023/10/27 00:57:18;;;;;;;3.42;1.95;;;11.60;99.90;;;11.62;100.00;98700.22;5244513;28;20503;-46
2023/10/27 00:59:51;;;;;;;4.70;2.10;;;11.60;99.90;;;11.62;100.00;98692.41;5240857;28;20216;-48
2023/10/27 01:02:24;;;;;;;5.60;2.33;;;11.60;99.90;;;11.65;100.00;98700.22;5258360;28;20052;-47
2023/10/27 01:04:56;;;;;;;6.55;2.33;;;11.60;99.90;;;11.65;100.00;98696.72;5242159;28;20146;-46
2023/10/27 01:07:30;;;;;;;3.45;1.95;;;11.60;99.90;;;11.64;100.00;98703.69;5241498;28;20063;-49
2023/10/27 01:10:05;;;;;;;4.28;2.22;;;11.60;99.90;;;11.63;100.00;98701.09;5244572;28;20152;-49
2023/10/27 01:12:37;;;;;;;5.70;2.17;;;11.60;99.90;;;11.63;100.00;98701.97;5244935;28;20051;-47
2023/10/27 01:15:10;;;;;;;6.68;1.70;;;11.60;99.90;;;11.62;100.00;98702.84;5241630;28;20046;-46
2023/10/27 01:17:43;;;;;;;4.03;2.10;;;11.60;99.90;;;11.62;100.00;98697.63;5242886;28;20052;-48
2023/10/27 01:20:16;;;;;;;4.72;2.03;;;11.60;99.90;;;11.61;100.00;98697.63;5244125;28;20040;-48
2023/10/27 01:22:51;;;;;;;4.22;2.33;;;11.60;99.90;;;11.61;100.00;98695.03;5227529;28;20058;-48
2023/10/27 01:25:23;;;;;;;5.28;2.33;;;11.60;99.90;;;11.62;100.00;98696.75;5241122;28;20534;-48
2023/10/27 01:27:56;;;;;;;4.22;2.22;;;11.60;99.90;;;11.59;100.00;98695.00;5241702;28;20392;-46
2023/10/27 01:30:29;;;;;;;6.63;2.80;;;11.60;99.90;;;11.56;100.00;98697.63;5244064;28;20059;-46
2023/10/27 01:33:01;;;;;;;4.30;2.00;;;11.60;99.90;;;11.55;100.00;98690.69;5241706;28;20487;-45
2023/10/27 01:35:35;;;;;;;4.85;2.42;;;11.50;99.90;;;11.53;100.00;98689.81;5243859;28;20044;-47
2023/10/27 01:38:08;;;;;;;5.65;2.40;;;11.50;99.90;;;11.52;100.00;98685.47;5247960;28;20068;-47
2023/10/27 01:40:41;;;;;;;3.72;1.95;;;11.50;99.90;;;11.52;100.00;98680.25;5242237;28;20059;-46
2023/10/27 01:43:14;;;;;;;4.60;2.30;;;11.50;99.90;;;11.52;100.00;98682.84;5251609;28;20102;-47
2023/10/27 01:45:46;;;;;;;6.22;2.05;;;11.50;99.90;;;11.52;100.00;98682.84;5237042;28;20048;-47
2023/10/27 01:48:19;;;;;;;5.72;2.10;;;11.50;99.90;;;11.50;100.00;98679.38;5244959;28;20384;-47
2023/10/27 01:50:51;;;;;;;6.07;2.13;;;11.50;99.90;;;11.51;100.00;98686.34;5257654;28;20602;-47
2023/10/27 01:53:25;;;;;;;4.80;2.17;;;11.50;99.90;;;11.51;100.00;98682.88;5240849;28;20605;-47
2023/10/27 01:55:58;;;;;;;5.50;1.80;;;11.50;99.90;;;11.50;100.00;98682.00;5243344;28;20106;-47
2023/10/27 01:58:30;;;;;;;5.60;1.75;;;11.50;99.90;;;11.50;100.00;98673.31;5244170;28;20396;-47
2023/10/27 02:01:03;;;;;;;4.43;1.95;;;11.50;99.90;;;11.50;100.00;98663.75;5242391;28;20575;-48
2023/10/27 02:03:36;;;;;;;5.15;1.98;;;11.50;99.90;;;11.51;100.00;98665.47;5237392;28;20036;-47
2023/10/27 02:06:08;;;;;;;3.78;1.77;;;11.50;99.90;;;11.50;100.00;98658.53;5243561;28;20132;-47
2023/10/27 02:08:42;;;;;;;4.22;2.10;;;11.50;99.90;;;11.51;100.00;98655.03;5244765;28;20044;-47
2023/10/27 02:11:15;;;;;;;5.35;2.03;;;11.50;99.90;;;11.49;100.00;98654.19;5236728;28;20044;-46
2023/10/27 02:13:49;;;;;;;2.97;1.50;;;11.50;99.90;;;11.49;100.00;98655.91;5244758;28;20534;-47
2023/10/27 02:16:21;;;;;;;3.83;1.52;;;11.50;99.90;;;11.48;100.00;98648.97;5243931;28;20058;-48
2023/10/27 02:18:54;;;;;;;5.68;1.90;;;11.50;99.90;;;11.47;100.00;98647.22;5257939;28;20080;-47
2023/10/27 02:21:26;;;;;;;5.65;1.48;;;11.50;99.90;;;11.45;100.00;98644.63;5237096;28;20067;-47
2023/10/27 02:24:00;;;;;;;4.03;1.70;;;11.50;99.90;;;11.43;100.00;98628.09;5241315;28;20062;-47
2023/10/27 02:26:33;;;;;;;4.28;1.85;;;11.50;99.90;;;11.42;100.00;98629.00;5246196;28;20068;-46
2023/10/27 02:29:05;;;;;;;3.05;1.55;;;11.40;99.90;;;11.40;100.00;98625.50;5244598;28;20048;-47
2023/10/27 02:31:38;;;;;;;5.15;1.63;;;11.40;99.90;;;11.38;100.00;98622.91;5254209;28;20055;-47
2023/10/27 02:34:10;;;;;;;3.13;1.73;;;11.40;99.90;;;11.37;100.00;98615.09;5256738;28;20070;-47
2023/10/27 02:36:43;;;;;;;4.60;1.50;;;11.40;99.90;;;11.37;100.00;98615.09;5248490;28;20170;-47
2023/10/27 02:39:17;;;;;;;2.83;1.40;;;11.40;99.90;;;11.35;100.00;98616.84;5255399;28;20063;-47
2023/10/27 02:41:49;;;;;;;3.83;1.30;;;11.40;99.90;;;11.33;100.00;98613.34;5243906;28;20503;-47
2023/10/27 02:44:22;;;;;;;3.40;1.42;;;11.40;99.90;;;11.33;100.00;98613.34;5243628;28;20142;-47
2023/10/27 02:46:54;;;;;;;2.90;1.33;;;11.40;99.90;;;11.34;100.00;98607.25;5245158;28;20052;-49
2023/10/27 02:49:27;;;;;;;3.08;1.40;;;11.30;99.90;;;11.33;100.00;98602.91;5245123;28;20054;-46
2023/10/27 02:51:59;;;;;;;2.63;1.35;;;11.30;99.90;;;11.32;100.00;98606.41;5243717;28;20080;-46
2023/10/27 02:54:33;;;;;;;3.17;1.30;;;11.30;99.90;;;11.33;100.00;98600.31;5244038;28;20044;-46
2023/10/27 02:57:06;;;;;;;4.57;1.40;;;11.30;99.90;;;11.34;100.00;98596.81;5246236;28;20048;-46
2023/10/27 02:59:38;;;;;;;3.50;1.33;;;11.30;99.90;;;11.34;100.00;98591.59;5239518;28;20533;-45
2023/10/27 03:02:11;;;;;;;2.67;1.25;;;11.30;99.90;;;11.34;100.00;98596.81;5262610;28;20147;-46
2023/10/27 03:04:43;;;;;;;4.25;1.60;;;11.30;99.90;;;11.33;100.00;98587.25;5245955;28;20082;-47
2023/10/27 03:07:16;;;;;;;2.15;1.13;;;11.30;99.90;;;11.33;100.00;98595.09;5260866;28;20067;-47
2023/10/27 03:09:50;;;;;;;4.70;1.52;;;11.30;99.90;;;11.33;100.00;98588.13;5248150;28;20062;-47
2023/10/27 03:12:22;;;;;;;3.67;1.40;;;11.30;99.90;;;11.35;100.00;98582.94;5246201;28;20059;-46
2023/10/27 03:14:55;;;;;;;4.05;1.30;;;11.30;99.90;;;11.35;100.00;98581.19;5243958;28;20048;-47
2023/10/27 03:17:27;;;;;;;3.13;1.00;;;11.30;99.90;;;11.36;100.00;98582.06;5244590;28;20063;-47
2023/10/27 03:20:00;;;;;;;3.83;1.10;;;11.30;99.90;;;11.35;100.00;98581.19;5259813;28;20039;-47
2023/10/27 03:22:32;;;;;;;3.97;1.30;;;11.40;99.90;;;11.37;100.00;98584.66;5247184;28;20165;-46
2023/10/27 03:25:07;;;;;;;5.53;3.13;;;11.40;99.90;;;11.37;100.00;98583.78;5246338;28;20487;-47
2023/10/27 03:27:40;;;;;;;5.75;2.08;;;11.40;99.90;;;11.39;100.00;98588.09;5244159;28;20044;-47
2023/10/27 03:30:14;;;;;;;4.38;2.08;;;11.40;99.90;;;11.40;100.00;98583.75;5246434;28;20050;-48
2023/10/27 03:32:46;;;;;;;6.00;2.47;;;11.40;99.90;;;11.40;100.00;98588.97;5241136;28;20054;-47
2023/10/27 03:35:19;;;;;;;7.00;2.88;;;11.40;99.90;;;11.41;100.00;98575.09;5262132;28;20047;-47
2023/10/27 03:37:51;;;;;;;4.18;2.75;;;11.40;99.90;;;11.44;100.00;98582.03;5249661;28;20048;-47
2023/10/27 03:40:25;;;;;;;6.53;3.10;;;11.40;99.90;;;11.44;100.00;98575.06;5244312;28;20423;-46
2023/10/27 03:42:58;;;;;;;7.93;3.55;;;11.40;99.90;;;11.45;100.00;98571.56;5262552;28;20044;-46
2023/10/27 03:45:31;;;;;;;8.02;4.97;;;11.50;99.90;;;11.46;100.00;98570.69;5243229;28;20044;-47
2023/10/27 03:48:04;;;;;;;6.47;4.20;;;11.40;99.90;;;11.45;100.00;98568.97;5262066;28;20502;-46
2023/10/27 03:50:37;;;;;;;5.72;3.95;;;11.50;99.90;;;11.45;100.00;98566.34;5245882;28;20083;-47
2023/10/27 03:53:09;;;;;;;6.63;3.50;;;11.50;99.90;;;11.44;100.00;98564.63;5255618;28;20064;-47
2023/10/27 03:55:43;;;;;;;8.13;2.70;;;11.50;99.90;;;11.42;100.00;98566.38;5244508;28;20072;-46
2023/10/27 03:58:17;;;;;;;4.85;2.60;;;11.50;99.90;;;11.42;100.00;98561.16;5244629;28;20470;-46
2023/10/27 04:00:49;;;;;;;4.47;2.28;;;11.50;99.90;;;11.40;100.00;98558.53;5259570;28;20414;-46
2023/10/27 04:03:22;;;;;;;8.98;2.40;;;11.40;99.90;;;11.41;100.00;98560.31;5248175;28;20135;-46
2023/10/27 04:05:55;;;;;;;3.65;2.00;;;11.40;99.90;;;11.42;100.00;98555.94;5240957;28;20040;-48
2023/10/27 04:08:28;;;;;;;5.57;1.70;;;11.50;99.90;;;11.41;100.00;98555.09;5258590;28;20055;-48
2023/10/27 04:11:01;;;;;;;4.53;2.08;;;11.50;99.90;;;11.36;100.00;98558.59;5243516;28;20101;-46
2023/10/27 04:13:34;;;;;;;5.07;2.00;;;11.40;99.90;;;11.36;100.00;98561.19;5240532;28;20048;-47
2023/10/27 04:16:07;;;;;;;3.63;1.52;;;11.40;99.90;;;11.35;100.00;98554.25;5241333;28;20586;-47
2023/10/27 04:18:40;;;;;;;5.20;1.80;;;11.40;99.90;;;11.34;100.00;98552.47;5244206;28;20052;-46
2023/10/27 04:21:15;;;;;;;5.80;1.73;;;11.40;99.90;;;11.33;100.00;98555.97;5245209;28;20048;-47
2023/10/27 04:23:48;;;;;;;3.22;1.45;;;11.40;99.90;;;11.34;100.00;98557.69;5246779;28;20036;-46
2023/10/27 04:26:22;;;;;;;5.15;1.90;;;11.40;99.90;;;11.35;100.00;98556.84;5244889;28;20044;-46
2023/10/27 04:28:54;;;;;;;2.72;1.73;;;11.40;99.90;;;11.35;100.00;98559.47;5244603;28;20451;-47
2023/10/27 04:31:27;;;;;;;2.88;1.65;;;11.40;99.90;;;11.35;100.00;98554.25;5243287;28;20058;-47
2023/10/27 04:33:59;;;;;;;5.15;1.50;;;11.40;99.90;;;11.34;100.00;98548.13;5242582;28;20411;-46
2023/10/27 04:36:32;;;;;;;3.30;1.73;;;11.40;99.90;;;11.36;100.00;98555.97;5245170;28;20036;-45
2023/10/27 04:39:05;;;;;;;5.50;2.15;;;11.40;99.90;;;11.35;100.00;98555.09;5243279;28;20143;-46
2023/10/27 04:41:38;;;;;;;3.15;1.70;;;11.40;99.90;;;11.37;100.00;98547.28;5241785;28;20052;-45
2023/10/27 04:44:12;;;;;;;5.20;2.08;;;11.40;99.90;;;11.36;100.00;98555.97;5245992;28;20113;-47
2023/10/27 04:46:44;;;;;;;6.32;2.40;;;11.40;99.90;;;11.35;100.00;98559.47;5245171;28;20055;-46
2023/10/27 04:49:17;;;;;;;6.38;2.15;;;11.40;99.90;;;11.36;100.00;98561.19;5256929;28;20036;-46
2023/10/27 04:51:49;;;;;;;4.47;2.10;;;11.40;99.90;;;11.36;100.00;98555.97;5242838;28;20134;-46
2023/10/27 04:54:22;;;;;;;6.82;2.10;;;11.40;99.90;;;11.37;100.00;98557.69;5241365;28;20058;-46
2023/10/27 04:56:55;;;;;;;3.22;1.63;;;11.40;99.90;;;11.38;100.00;98559.44;5243211;28;20044;-46
2023/10/27 04:59:28;;;;;;;4.70;2.17;;;11.40;99.90;;;11.38;100.00;98555.09;5239900;28;20143;-46
2023/10/27 05:02:01;;;;;;;2.97;1.60;;;11.40;99.90;;;11.41;100.00;98559.44;5242043;28;20066;-46
2023/10/27 05:04:33;;;;;;;3.33;1.95;;;11.40;99.90;;;11.40;100.00;98555.06;5241430;28;20366;-46
2023/10/27 05:07:06;;;;;;;3.88;1.83;;;11.40;99.90;;;11.40;100.00;98558.53;5244485;28;20120;-46
2023/10/27 05:09:39;;;;;;;6.45;1.83;;;11.40;99.90;;;11.41;100.00;98555.09;5267402;28;20056;-46
2023/10/27 05:12:13;;;;;;;6.10;1.80;;;11.40;99.90;;;11.44;100.00;98564.63;5258591;28;20068;-46
2023/10/27 05:14:46;;;;;;;3.50;1.85;;;11.50;99.90;;;11.45;100.00;98561.13;5243959;28;20043;-46
2023/10/27 05:17:18;;;;;;;5.25;1.98;;;11.50;99.90;;;11.45;100.00;98563.75;5253241;28;20074;-46
2023/10/27 05:19:51;;;;;;;4.10;1.83;;;11.50;99.90;;;11.46;100.00;98560.25;5241395;28;20040;-47
2023/10/27 05:22:23;;;;;;;4.18;1.70;;;11.50;99.90;;;11.47;100.00;98562.00;5256883;28;20060;-46
2023/10/27 05:24:57;;;;;;;5.18;1.88;;;11.40;99.90;;;11.47;100.00;98562.00;5241096;28;20058;-46
2023/10/27 05:27:31;;;;;;;7.50;2.08;;;11.50;99.90;;;11.47;100.00;98558.53;5239060;28;20052;-47
2023/10/27 05:30:05;;;;;;;3.83;1.90;;;11.50;99.90;;;11.47;100.00;98564.59;5241835;28;20048;-46
2023/10/27 05:32:38;;;;;;;6.32;2.10;;;11.50;99.90;;;11.48;100.00;98565.50;5237820;28;20609;-46
2023/10/27 05:35:10;;;;;;;4.40;2.00;;;11.50;99.90;;;11.48;100.00;98558.53;5253796;28;20452;-45
2023/10/27 05:37:43;;;;;;;8.13;2.60;;;11.50;99.90;;;11.48;100.00;98562.88;5241226;28;20147;-48
2023/10/27 05:40:16;;;;;;;6.53;1.98;;;11.50;99.90;;;11.47;100.00;98556.78;5243871;28;20044;-48
2023/10/27 05:42:49;;;;;;;7.80;2.28;;;11.50;99.90;;;11.47;100.00;98564.59;5243525;28;20623;-46
2023/10/27 05:45:22;;;;;;;4.72;1.90;;;11.50;99.90;;;11.47;100.00;98559.38;5241224;28;20073;-46
2023/10/27 05:47:55;;;;;;;5.30;2.05;;;11.50;99.90;;;11.47;100.00;98559.38;5241349;28;20044;-46
2023/10/27 05:50:27;;;;;;;3.75;2.00;;;11.50;99.90;;;11.47;100.00;98562.00;5244643;28;20573;-47
2023/10/27 05:53:00;;;;;;;4.10;2.00;;;11.50;99.90;;;11.47;100.00;98572.44;5255256;28;20048;-46
2023/10/27 05:55:32;;;;;;;6.65;2.50;;;11.50;99.90;;;11.47;100.00;98563.72;5237405;28;20078;-47
2023/10/27 05:58:07;;;;;;;8.80;2.85;;;11.50;99.90;;;11.41;100.00;98560.31;5241468;28;20495;-45
2023/10/27 06:00:39;;;;;;;7.80;2.65;;;11.50;99.90;;;11.39;100.00;98562.03;5247938;28;20131;-47
2023/10/27 06:03:12;;;;;;;6.43;2.58;;;11.40;99.90;;;11.39;100.00;98563.78;5246906;28;20048;-46
2023/10/27 06:05:44;;;;;;;8.63;2.60;;;11.40;99.90;;;11.38;100.00;98564.66;5243321;28;20044;-46
2023/10/27 06:08:17;;;;;;;6.57;3.00;;;11.40;99.90;;;11.38;100.00;98565.50;5243603;28;20040;-47
2023/10/27 06:10:49;;;;;;;9.30;2.63;;;11.40;99.90;;;11.39;100.00;98561.16;5244509;28;20050;-46
2023/10/27 06:13:26;;;;;;;5.55;2.25;;;11.40;99.90;;;11.39;100.00;98566.38;5247891;28;20418;-47
2023/10/27 06:15:58;;;;;;;7.70;2.35;;;11.40;99.90;;;11.38;100.00;98557.69;5239806;28;20139;-46
2023/10/27 06:18:31;;;;;;;5.50;2.38;;;11.40;99.90;;;11.42;100.00;98571.59;5249115;28;20036;-47
2023/10/27 06:21:04;;;;;;;4.45;2.15;;;11.50;99.90;;;11.43;100.00;98570.72;5257449;28;20076;-45
2023/10/27 06:23:37;;;;;;;8.27;2.55;;;11.40;99.90;;;11.43;100.00;98568.13;5263376;28;20495;-45
2023/10/27 06:26:09;;;;;;;4.43;2.05;;;11.40;99.90;;;11.43;100.00;98567.25;5264261;28;20446;-45
2023/10/27 06:28:43;;;;;;;4.82;2.20;;;11.50;99.90;;;11.45;100.00;98570.72;5244416;28;20055;-46
2023/10/27 06:31:16;;;;;;;7.30;2.55;;;11.50;99.90;;;11.47;100.00;98568.94;5247354;28;20134;-46
2023/10/27 06:33:48;;;;;;;4.78;2.28;;;11.50;99.90;;;11.47;100.00;98575.03;5247550;28;20044;-46
2023/10/27 06:36:21;;;;;;;7.35;2.50;;;11.50;99.90;;;11.48;100.00;98575.94;5248832;28;20066;-46
2023/10/27 06:38:53;;;;;;;7.65;2.55;;;11.50;99.90;;;11.47;100.00;98574.16;5249244;28;20342;-46
2023/10/27 06:41:25;;;;;;;13.30;2.72;;;11.50;99.90;;;11.47;100.00;98568.94;5248693;28;20135;-45
2023/10/27 06:44:00;;;;;;;7.60;2.50;;;11.50;99.90;;;11.46;100.00;98569.84;5244840;28;20052;-46
2023/10/27 06:46:32;;;;;;;4.95;2.10;;;11.50;99.90;;;11.44;100.00;98569.84;5262923;28;20040;-46
2023/10/27 06:49:05;;;;;;;4.72;2.15;;;11.50;99.90;;;11.43;100.00;98568.13;5247662;28;20050;-45
2023/10/27 06:51:37;;;;;;;6.13;2.05;;;11.50;99.90;;;11.43;100.00;98567.25;5246019;28;20107;-46
2023/10/27 06:54:11;;;;;;;3.90;2.05;;;11.50;99.90;;;11.41;100.00;98568.13;5238507;28;20521;-46
2023/10/27 06:56:44;;;;;;;5.55;2.13;;;11.50;99.90;;;11.42;100.00;98579.44;5260313;28;20052;-46
2023/10/27 06:59:17;;;;;;;6.25;2.10;;;11.50;99.90;;;11.41;100.00;98570.75;5251497;28;20043;-46
2023/10/27 07:01:52;;;;;;;3.25;1.80;;;11.50;99.90;;;11.44;100.00;98574.19;5209153;28;20048;-46
2023/10/27 07:04:24;;;;;;;5.57;1.73;;;11.50;99.90;;;11.52;100.00;98573.28;5230571;28;20048;-45
2023/10/27 07:06:57;;;;;;;9.20;2.35;;;11.50;99.90;;;11.62;100.00;98580.22;5246585;28;20430;-45
2023/10/27 07:09:29;;;;;;;5.82;2.30;;;11.60;99.90;;;11.66;100.00;98576.69;5244766;28;20127;-45
2023/10/27 07:12:03;;;;;;;6.25;2.20;;;11.70;99.90;;;11.74;100.00;98581.03;5248548;28;20040;-45
2023/10/27 07:14:39;;;;;;;3.92;1.70;;;11.70;99.90;;;11.80;100.00;98576.66;5247544;28;20498;-46
2023/10/27 07:17:11;;;;;;;4.95;1.52;;;11.80;99.90;;;11.80;100.00;98581.88;5247238;28;20037;-46
2023/10/27 07:19:44;;;;;;;2.88;1.42;;;11.80;99.90;;;11.77;100.00;98578.38;5247693;28;20043;-46
2023/10/27 07:22:19;;;;;;;4.35;1.50;;;11.80;99.90;;;11.74;100.00;98584.50;5247358;28;20066;-46
2023/10/27 07:24:51;;;;;;;4.75;1.42;;;11.80;99.90;;;11.73;100.00;98587.97;5262472;28;20074;-46
2023/10/27 07:27:24;;;;;;;2.10;1.42;;;11.80;99.90;;;11.71;100.00;98592.34;5237704;28;20140;-45
2023/10/27 07:29:58;;;;;;;4.95;1.60;;;11.70;99.90;;;11.71;100.00;98596.69;5262294;28;20047;-45
2023/10/27 07:32:30;;;;;;;5.07;1.40;;;11.70;99.90;;;11.68;100.00;98598.44;5241672;28;20521;-46
2023/10/27 07:35:03;;;;;;;4.20;1.38;;;11.70;99.90;;;11.67;100.00;98601.03;5247782;28;20048;-46
2023/10/27 07:37:36;;;;;;;4.75;2.08;;;11.70;99.90;;;11.68;100.00;98603.66;5245334;28;20048;-46
2023/10/27 07:40:09;;;;;;;6.57;1.60;;;11.70;99.90;;;11.66;100.00;98600.16;5241458;28;20864;-46
2023/10/27 07:42:42;;;;;;;2.17;1.23;;;11.70;99.90;;;11.67;100.00;98607.16;5247587;28;20044;-45
2023/10/27 07:45:16;;;;;;;6.22;1.80;;;11.70;99.90;;;11.69;100.00;98608.00;5245333;28;20047;-45
2023/10/27 07:47:48;;;;;;;3.50;1.60;;;11.70;99.90;;;11.72;100.00;98611.47;5247348;28;20426;-45
2023/10/27 07:50:22;;;;;;;5.72;2.00;;;11.70;99.90;;;11.75;100.00;98614.94;5245977;28;20044;-46
2023/10/27 07:52:54;;;;;;;4.22;1.77;;;11.70;99.90;;;11.76;100.00;98610.59;5244702;28;20154;-46
2023/10/27 07:55:27;;;;;;;7.00;2.13;;;11.70;99.90;;;11.76;100.00;98614.06;5256498;28;20048;-46
2023/10/27 07:58:04;;;;;;;5.07;2.20;;;11.80;99.90;;;11.78;100.00;98606.22;5237832;28;20402;-46
2023/10/27 08:00:38;;;;;;;7.47;2.35;;;11.80;99.90;;;11.78;100.00;98625.34;5239425;28;20050;-46
2023/10/27 08:03:11;;;;;;;4.82;2.33;;;11.80;99.90;;;11.79;100.00;98616.66;5246559;28;20036;-46
2023/10/27 08:05:44;;;;;;;6.18;2.17;;;11.80;99.90;;;11.81;100.00;98621.91;5241310;28;20602;-45
2023/10/27 08:08:17;;;;;;;3.70;1.88;;;11.80;99.90;;;11.83;100.00;98622.75;5242859;28;20055;-46
2023/10/27 08:10:49;;;;;;;3.28;1.65;;;11.80;99.90;;;11.83;100.00;98630.59;5245749;28;20511;-45
2023/10/27 08:13:22;;;;;;;4.43;2.20;;;11.80;99.90;;;11.89;100.00;98625.34;5244147;28;20178;-45
2023/10/27 08:15:56;;;;;;;6.40;1.83;;;11.90;99.90;;;11.94;100.00;98634.91;5246732;28;20044;-45
2023/10/27 08:18:28;;;;;;;5.43;2.13;;;11.90;99.90;;;11.91;100.00;98629.69;5244994;28;20146;-46
2023/10/27 08:21:01;;;;;;;3.47;1.60;;;11.90;99.90;;;11.92;100.00;98630.53;5239057;28;20089;-46
2023/10/27 08:23:33;;;;;;;2.63;1.67;;;11.90;99.90;;;11.94;100.00;98636.63;5245988;28;20048;-46
2023/10/27 08:26:06;;;;;;;5.80;2.60;;;11.90;99.90;;;11.96;100.00;98637.50;5246019;28;20051;-47
2023/10/27 08:28:38;;;;;;;6.25;2.03;;;11.90;99.90;;;11.96;100.00;98647.94;5246595;28;20467;-46
2023/10/27 08:31:13;;;;;;;5.97;1.90;;;11.90;99.90;;;11.96;100.00;98645.31;5244080;28;20032;-47
2023/10/27 08:33:45;;;;;;;6.18;2.50;;;11.90;99.90;;;11.96;100.00;98642.72;5258205;28;20437;-47
2023/10/27 08:36:19;;;;;;;6.05;2.22;;;12.00;99.90;;;11.98;100.00;98646.19;5247081;28;20047;-46
2023/10/27 08:38:54;;;;;;;3.65;1.92;;;11.90;99.90;;;11.98;100.00;98648.78;5246578;28;20071;-46
2023/10/27 08:41:26;;;;;;;3.47;1.75;;;12.00;99.90;;;12.02;100.00;98652.25;5243643;28;20032;-47
2023/10/27 08:44:02;;;;;;;3.17;1.63;;;12.00;99.90;;;12.02;100.00;98652.25;5254362;28;20503;-47
2023/10/27 08:46:36;;;;;;;4.40;1.88;;;12.00;99.90;;;12.03;100.00;98654.84;5246272;28;20406;-46
2023/10/27 08:49:09;;;;;;;8.52;2.47;;;12.00;99.90;;;12.05;100.00;98650.47;5243191;28;20075;-46
2023/10/27 08:51:43;;;;;;;7.57;2.13;;;12.00;99.90;;;12.08;100.00;98653.09;5244916;28;20393;-47
2023/10/27 08:54:15;;;;;;;4.80;2.08;;;12.00;99.90;;;12.12;100.00;98656.53;5243012;28;20044;-47
2023/10/27 08:56:48;;;;;;;4.70;2.10;;;12.10;99.90;;;12.15;100.00;98659.16;5252672;28;20049;-47
2023/10/27 08:59:21;;;;;;;5.63;2.17;;;12.10;99.90;;;12.18;100.00;98660.00;5246075;28;20075;-47
2023/10/27 09:01:56;;;;;;;4.28;1.58;;;12.10;99.90;;;12.26;100.00;98661.69;5242255;28;20511;-47
2023/10/27 09:04:31;;;;;;;3.90;1.92;;;12.20;99.90;;;12.28;100.00;98663.44;5246437;28;20646;-46
2023/10/27 09:07:03;;;;;;;6.60;2.10;;;12.20;99.90;;;12.31;100.00;98667.75;5252450;28;20046;-47
2023/10/27 09:09:36;;;;;;;6.05;2.20;;;12.20;99.90;;;12.32;100.00;98667.75;5262991;28;20050;-46
2023/10/27 09:12:09;;;;;;;3.92;2.45;;;12.30;99.90;;;12.35;100.00;98666.88;5246785;28;20074;-47
2023/10/27 09:14:43;;;;;;;4.28;1.70;;;12.30;99.90;;;12.39;100.00;98663.38;5246919;28;20578;-46
2023/10/27 09:17:18;;;;;;;4.63;1.80;;;12.30;99.90;;;12.43;100.00;98670.31;5251199;28;20078;-46
2023/10/27 09:20:04;;;;;;;3.95;1.80;;;12.30;99.90;;;12.47;100.00;98669.41;5261427;28;20451;-47
2023/10/27 09:22:37;;;;;;;4.20;1.75;;;12.40;99.90;;;12.48;100.00;98665.91;5245491;28;20471;-46
2023/10/27 09:25:17;;;;;;;3.78;2.00;;;12.40;99.90;;;12.47;100.00;98672.88;5246209;28;20062;-47
2023/10/27 09:27:50;;;;;;;3.40;1.60;;;12.40;99.90;;;12.47;100.00;98669.41;5245543;28;20047;-47
2023/10/27 09:30:30;;;;;;;5.47;1.55;;;12.40;99.90;;;12.47;100.00;98667.66;5244117;28;20441;-46
2023/10/27 09:33:18;;;;;;;4.80;1.73;;;12.40;99.90;;;12.49;100.00;98680.72;5240924;28;20052;-47
2023/10/27 09:35:52;;;;;;;7.45;2.42;;;12.40;99.90;;;12.49;100.00;98686.81;5244360;28;20529;-48
2023/10/27 09:38:25;;;;;;;2.88;1.65;;;12.40;99.90;;;12.48;100.00;98684.22;5244390;28;20040;-47
2023/10/27 09:41:01;;;;;;;2.95;1.55;;;12.40;99.90;;;12.48;100.00;98686.81;5246357;28;20243;-47
2023/10/27 09:43:38;;;;;;;3.33;1.65;;;12.40;99.90;;;12.47;100.00;98685.94;5244988;28;20048;-47
2023/10/27 09:46:14;;;;;;;4.53;1.48;;;12.40;99.90;;;12.47;100.00;98685.94;5242285;28;20500;-46
2023/10/27 09:48:52;;;;;;;3.50;1.35;;;12.40;99.90;;;12.46;100.00;98691.19;5244373;28;20136;-47
2023/10/27 09:51:28;;;;;;;2.78;1.33;;;12.40;99.90;;;12.47;100.00;98692.94;5245979;28;20050;-47
2023/10/27 09:54:04;;;;;;;5.60;1.63;;;12.40;99.90;;;12.45;100.00;98695.56;5237460;28;20045;-46
2023/10/27 09:56:37;;;;;;;2.65;1.55;;;12.40;99.90;;;12.45;100.00;98694.66;5244852;28;20071;-47
2023/10/27 09:59:10;;;;;;;4.65;1.60;;;12.40;99.90;;;12.47;100.00;98699.03;5245456;28;20048;-47
2023/10/27 10:01:42;;;;;;;5.35;1.52;;;12.40;99.90;;;12.47;100.00;98703.38;5245810;28;20131;-47
2023/10/27 10:05:03;;;;;;;3.63;1.58;;;12.50;99.90;;;12.48;100.00;98700.75;5242484;28;20500;-45
2023/10/27 10:07:38;;;;;;;5.13;2.13;;;12.40;99.90;;;12.72;100.00;98704.97;5243597;28;20056;-47
2023/10/27 10:10:29;;;;;;;9.07;2.25;;;12.60;99.90;;;13.44;100.00;98706.13;5241938;28;20047;-47
2023/10/27 10:13:08;;;;;;;5.57;1.75;;;13.20;99.90;;;13.62;100.00;98711.16;5239007;28;20094;-46
2023/10/27 10:15:42;;;;;;;4.22;1.75;;;13.50;99.90;;;13.53;100.00;98717.34;5243718;28;20052;-47
2023/10/27 10:18:52;;;;;;;3.67;1.42;;;13.50;99.90;;;13.39;100.00;98711.41;5245145;28;20044;-47
2023/10/27 10:21:38;;;;;;;2.00;1.15;;;13.40;99.90;;;13.30;100.00;98708.84;5230832;28;20048;-46
2023/10/27 10:24:14;;;;;;;2.35;1.30;;;13.30;99.90;;;13.23;100.00;98712.41;5238097;28;20052;-46
2023/10/27 10:27:10;;;;;;;2.42;1.20;;;13.30;99.90;;;13.17;100.00;98712.44;5237048;28;20097;-46
2023/10/27 10:29:43;;;;;;;2.67;1.02;;;13.20;99.90;;;13.13;100.00;98711.59;5247100;28;20047;-47
2023/10/27 10:32:36;;;;;;;3.08;1.17;;;13.10;99.90;;;13.15;100.00;98707.22;5245209;28;20094;-46
2023/10/27 10:35:27;;;;;;;3.50;1.45;;;13.10;99.90;;;13.17;100.00;98704.56;5243804;28;20056;-46
2023/10/27 10:38:39;;;;;;;2.50;1.20;;;13.10;99.90;;;13.13;100.00;98715.97;5257739;28;20044;-47
2023/10/27 10:41:14;;;;;;;1.75;1.10;;;13.10;99.90;;;13.11;100.00;98702.91;5255964;28;20121;-46